Time;durP1;ratioP1;P1;durP2;ratioP2;P2;SDS_P1;SDS_P2;PMS_P1;PMS_P2;Temp;Humidity;BMP_temperature;BMP_pressure;BME280_temperature;BME280_humidity;BME280_pressure;Samples;Min_cycle;Max_cycle;Signal;HPM_P1;HPM_P2
2020/12/02 00:00:14;;;;;;;27.37;14.20;;;1.20;99.90;;;;;;5009510;28;20096;-84
2020/12/02 00:03:04;;;;;;;26.00;14.80;;;1.20;99.90;;;;;;5009159;28;20056;-84
2020/12/02 00:05:32;;;;;;;26.33;13.48;;;1.10;99.90;;;;;;5013213;28;20041;-85
2020/12/02 00:08:08;;;;;;;28.67;15.93;;;1.20;99.90;;;;;;5032387;28;20105;-85
2020/12/02 00:10:35;;;;;;;30.13;15.40;;;1.10;99.90;;;;;;5016272;28;20041;-83
2020/12/02 00:13:02;;;;;;;31.10;14.37;;;1.10;99.90;;;;;;5031920;28;20010;-84
2020/12/02 00:15:28;;;;;;;28.33;14.60;;;1.10;99.90;;;;;;5034674;28;20037;-85
2020/12/02 00:17:58;;;;;;;30.60;15.37;;;1.10;99.90;;;;;;5016274;28;20184;-84
2020/12/02 00:20:25;;;;;;;15.43;7.50;;;1.10;99.90;;;;;;5011448;28;20038;-85
2020/12/02 00:22:51;;;;;;;29.37;10.37;;;1.00;99.90;;;;;;5010800;28;20025;-85
2020/12/02 00:25:17;;;;;;;35.17;16.07;;;1.00;99.90;;;;;;5001081;28;20033;-86
2020/12/02 00:27:43;;;;;;;33.27;14.43;;;1.00;99.90;;;;;;5006044;28;20058;-85
2020/12/02 00:30:10;;;;;;;29.77;12.93;;;1.00;99.90;;;;;;5017246;28;20129;-86
2020/12/02 00:32:40;;;;;;;34.30;14.23;;;1.00;99.90;;;;;;5016741;28;20057;-84
2020/12/02 00:35:11;;;;;;;36.15;15.95;;;1.00;99.90;;;;;;5026379;28;20045;-84
2020/12/02 00:37:36;;;;;;;37.77;15.97;;;0.80;99.90;;;;;;5017430;28;20080;-83
2020/12/02 00:40:04;;;;;;;34.67;12.80;;;0.80;99.90;;;;;;5015191;28;20045;-84
2020/12/02 00:42:29;;;;;;;48.20;18.87;;;0.80;99.90;;;;;;5013653;28;20582;-86
2020/12/02 00:44:55;;;;;;;37.73;14.37;;;0.80;99.90;;;;;;5008763;28;20025;-83
2020/12/02 00:47:23;;;;;;;30.13;10.10;;;0.80;99.90;;;;;;5013338;28;20050;-84
2020/12/02 00:49:54;;;;;;;35.37;14.07;;;0.70;99.90;;;;;;5019187;28;20056;-85
2020/12/02 00:52:20;;;;;;;29.40;11.30;;;0.70;99.90;;;;;;5015528;28;20046;-85
2020/12/02 00:54:46;;;;;;;58.17;22.33;;;0.60;99.90;;;;;;5046219;28;20022;-86
2020/12/02 00:57:17;;;;;;;63.37;22.87;;;0.60;99.90;;;;;;5017571;28;20056;-87
2020/12/02 00:59:49;;;;;;;62.20;22.93;;;0.60;99.90;;;;;;5037521;28;20037;-87
2020/12/02 01:02:44;;;;;;;59.70;23.80;;;0.60;99.90;;;;;;5025402;28;20013;-85
2020/12/02 01:05:16;;;;;;;33.33;12.07;;;0.60;99.90;;;;;;5035461;28;20049;-86
2020/12/02 01:07:43;;;;;;;58.30;18.37;;;0.40;99.90;;;;;;5028222;28;20037;-85
2020/12/02 01:10:09;;;;;;;36.00;13.47;;;0.20;99.90;;;;;;5028054;28;20037;-84
2020/12/02 01:12:37;;;;;;;55.53;22.60;;;0.10;99.90;;;;;;5005681;28;20032;-85
2020/12/02 01:15:08;;;;;;;62.43;22.17;;;0.20;99.90;;;;;;4997833;28;20034;-86
2020/12/02 01:17:33;;;;;;;58.93;23.03;;;0.10;99.90;;;;;;5014312;28;20433;-86
2020/12/02 01:19:59;;;;;;;79.13;32.60;;;0.10;99.90;;;;;;5004647;28;20085;-85
2020/12/02 01:22:38;;;;;;;70.03;29.57;;;0.10;99.90;;;;;;4987149;28;20026;-86
2020/12/02 01:25:22;;;;;;;72.33;27.47;;;0.20;99.90;;;;;;4980486;28;20037;-85
2020/12/02 01:28:08;;;;;;;63.43;24.17;;;0.10;99.90;;;;;;5005861;28;20026;-84
2020/12/02 01:30:38;;;;;;;64.13;25.03;;;0.20;99.90;;;;;;4997659;28;20750;-87
2020/12/02 01:33:04;;;;;;;70.03;28.20;;;0.10;99.90;;;;;;4996978;28;20109;-86
2020/12/02 01:35:33;;;;;;;73.07;25.10;;;0.10;99.90;;;;;;4983470;28;20033;-84
2020/12/02 01:38:06;;;;;;;58.83;22.80;;;0.10;99.90;;;;;;4994177;28;20026;-87
2020/12/02 01:40:35;;;;;;;63.97;24.70;;;0.00;99.90;;;;;;4986429;28;20034;-85
2020/12/02 01:43:06;;;;;;;74.05;30.60;;;0.00;99.90;;;;;;4994763;28;20056;-87
2020/12/02 01:45:35;;;;;;;56.90;22.43;;;0.10;99.90;;;;;;5012610;28;20035;-84
2020/12/02 01:48:01;;;;;;;85.07;35.30;;;0.00;99.90;;;;;;5011673;28;20040;-86
2020/12/02 01:51:02;;;;;;;56.77;20.30;;;0.00;99.90;;;;;;4989113;28;20439;-86
2020/12/02 01:53:52;;;;;;;64.33;25.20;;;0.00;99.90;;;;;;4942481;29;20042;-86
2020/12/02 01:56:33;;;;;;;72.80;31.00;;;0.00;99.90;;;;;;4954524;29;20511;-85
2020/12/02 01:59:11;;;;;;;55.97;19.20;;;0.00;99.90;;;;;;4938147;29;20049;-86
2020/12/02 02:01:53;;;;;;;52.47;20.47;;;-0.10;99.90;;;;;;4939129;29;20027;-84
2020/12/02 02:04:25;;;;;;;60.00;21.57;;;-0.20;99.90;;;;;;4934023;29;20048;-85
2020/12/02 02:06:59;;;;;;;37.07;16.40;;;-0.20;99.90;;;;;;4925566;29;20083;-86
2020/12/02 02:09:27;;;;;;;65.97;25.67;;;-0.30;99.90;;;;;;4932845;29;20031;-83
2020/12/02 02:12:06;;;;;;;77.90;32.93;;;-0.40;99.90;;;;;;4949956;29;20059;-85
2020/12/02 02:14:42;;;;;;;63.92;26.63;;;-0.30;99.90;;;;;;4957189;29;20046;-85
2020/12/02 02:17:08;;;;;;;35.23;13.47;;;-0.30;99.90;;;;;;4970650;29;20051;-85
2020/12/02 02:19:34;;;;;;;51.10;21.60;;;-0.40;99.90;;;;;;4938019;28;20090;-87
2020/12/02 02:21:59;;;;;;;72.67;29.47;;;-0.40;99.90;;;;;;4936838;29;20043;-85
2020/12/02 02:24:26;;;;;;;52.60;23.10;;;-0.40;99.90;;;;;;4948553;29;20123;-86
2020/12/02 02:26:54;;;;;;;62.40;27.83;;;-0.50;99.90;;;;;;4942091;29;20035;-84
2020/12/02 02:29:25;;;;;;;67.47;23.97;;;-0.50;99.90;;;;;;4952979;28;20039;-87
2020/12/02 02:31:57;;;;;;;64.83;30.23;;;-0.50;99.90;;;;;;4989730;28;20057;-85
2020/12/02 02:34:23;;;;;;;70.80;29.63;;;-0.50;99.90;;;;;;4992805;28;20038;-86
2020/12/02 02:36:48;;;;;;;34.60;14.60;;;-0.50;99.90;;;;;;4985358;28;20030;-83
2020/12/02 02:39:15;;;;;;;33.00;14.97;;;-0.60;99.90;;;;;;4986161;28;20089;-86
2020/12/02 02:41:42;;;;;;;56.77;22.70;;;-0.60;99.90;;;;;;5010307;28;20044;-85
2020/12/02 02:44:10;;;;;;;44.70;19.73;;;-0.60;99.90;;;;;;5004418;28;20042;-84
2020/12/02 02:46:36;;;;;;;60.65;24.83;;;-0.70;99.90;;;;;;4996107;28;20057;-85
2020/12/02 02:49:06;;;;;;;57.97;25.27;;;-0.60;99.90;;;;;;4994844;28;20018;-86
2020/12/02 02:51:33;;;;;;;53.80;24.20;;;-0.60;99.90;;;;;;4996561;28;20037;-84
2020/12/02 02:53:59;;;;;;;53.67;24.67;;;-0.60;99.90;;;;;;4995507;28;20026;-86
2020/12/02 02:56:25;;;;;;;37.83;13.23;;;-0.60;99.90;;;;;;5009305;28;20411;-86
2020/12/02 02:58:50;;;;;;;37.43;12.87;;;-0.60;99.90;;;;;;4994854;28;20037;-84
2020/12/02 03:01:16;;;;;;;57.23;22.77;;;-0.70;99.90;;;;;;4991827;28;20124;-84
2020/12/02 03:03:42;;;;;;;55.00;24.13;;;-0.70;99.90;;;;;;4980834;28;20588;-87
2020/12/02 03:06:08;;;;;;;59.13;26.40;;;-0.70;99.90;;;;;;4989300;28;20029;-86
2020/12/02 03:08:35;;;;;;;51.33;22.07;;;-0.60;99.90;;;;;;4992114;28;20034;-85
2020/12/02 03:11:04;;;;;;;58.23;24.80;;;-0.70;99.90;;;;;;4987038;28;20032;-85
2020/12/02 03:13:48;;;;;;;57.38;24.58;;;-0.70;99.90;;;;;;5010295;28;20030;-85
2020/12/02 03:16:33;;;;;;;48.53;20.63;;;-0.60;99.90;;;;;;5010023;28;20434;-85
2020/12/02 03:19:07;;;;;;;52.27;22.97;;;-0.70;99.90;;;;;;4986891;28;20131;-86
2020/12/02 03:21:33;;;;;;;38.83;18.10;;;-0.70;99.90;;;;;;5014425;28;20037;-84
2020/12/02 03:24:00;;;;;;;54.80;23.73;;;-0.60;99.90;;;;;;5026458;28;20030;-85
2020/12/02 03:26:26;;;;;;;47.77;19.63;;;-0.60;99.90;;;;;;5009840;28;20026;-85
2020/12/02 03:28:53;;;;;;;33.83;13.53;;;-0.70;99.90;;;;;;4999512;28;20036;-85
2020/12/02 03:31:20;;;;;;;57.60;24.93;;;-0.70;99.90;;;;;;5025159;28;20030;-86
2020/12/02 03:33:48;;;;;;;59.03;25.13;;;-0.70;99.90;;;;;;5009882;28;20481;-85
2020/12/02 03:36:15;;;;;;;61.23;28.30;;;-0.60;99.90;;;;;;5021002;28;20034;-85
2020/12/02 03:38:42;;;;;;;55.53;21.70;;;-0.60;99.90;;;;;;5041205;28;20045;-86
2020/12/02 03:41:08;;;;;;;52.03;22.40;;;-0.70;99.90;;;;;;5019704;28;20086;-86
2020/12/02 03:43:34;;;;;;;24.23;10.67;;;-0.80;99.90;;;;;;5008450;28;20076;-86
2020/12/02 03:46:01;;;;;;;30.07;12.07;;;-0.80;99.90;;;;;;5011977;28;20014;-86
2020/12/02 03:48:27;;;;;;;58.57;25.17;;;-0.90;99.90;;;;;;5030897;28;20062;-84
2020/12/02 03:50:52;;;;;;;35.90;13.87;;;-0.80;99.90;;;;;;5012958;28;20436;-85
2020/12/02 03:53:18;;;;;;;37.87;14.73;;;-0.90;99.90;;;;;;5028898;28;20041;-85
2020/12/02 03:55:45;;;;;;;32.93;13.93;;;-1.00;99.90;;;;;;4998290;28;20034;-86
2020/12/02 03:58:11;;;;;;;38.03;14.47;;;-1.10;99.90;;;;;;5012386;28;20037;-86
2020/12/02 04:00:37;;;;;;;63.43;26.70;;;-1.10;99.90;;;;;;5008770;28;20029;-85
2020/12/02 04:03:03;;;;;;;43.73;16.00;;;-1.10;99.90;;;;;;5037109;28;20033;-83
2020/12/02 04:05:29;;;;;;;33.47;13.00;;;-1.10;99.90;;;;;;5016023;28;20102;-83
2020/12/02 04:07:55;;;;;;;67.57;27.93;;;-1.20;99.90;;;;;;5032689;28;20069;-84
2020/12/02 04:10:21;;;;;;;28.17;12.90;;;-1.10;99.90;;;;;;5030158;28;20484;-85
2020/12/02 04:12:47;;;;;;;23.93;11.10;;;-1.10;99.90;;;;;;5010048;28;20033;-84
2020/12/02 04:15:13;;;;;;;32.50;12.43;;;-1.30;99.90;;;;;;5018214;28;20091;-85
2020/12/02 04:17:39;;;;;;;39.20;14.40;;;-1.30;99.90;;;;;;5033690;28;20037;-85
2020/12/02 04:20:05;;;;;;;25.97;11.10;;;-1.30;99.90;;;;;;5028509;28;20049;-85
2020/12/02 04:22:31;;;;;;;32.73;14.93;;;-1.30;99.90;;;;;;5025931;28;20741;-86
2020/12/02 04:24:56;;;;;;;33.67;12.60;;;-1.30;99.90;;;;;;5012011;28;20034;-85
2020/12/02 04:27:22;;;;;;;26.00;10.47;;;-1.30;99.90;;;;;;5005256;28;20037;-83
2020/12/02 04:29:48;;;;;;;31.90;13.50;;;-1.40;99.90;;;;;;5011546;28;20038;-85
2020/12/02 04:32:13;;;;;;;31.40;11.83;;;-1.50;99.90;;;;;;5003889;28;20055;-85
2020/12/02 04:34:39;;;;;;;35.37;13.97;;;-1.50;99.90;;;;;;5032205;28;20563;-84
2020/12/02 04:37:05;;;;;;;41.00;14.97;;;-1.40;99.90;;;;;;5028388;28;20045;-84
2020/12/02 04:39:30;;;;;;;36.10;13.10;;;-1.60;99.90;;;;;;5001548;28;20045;-85
2020/12/02 04:41:57;;;;;;;49.30;17.73;;;;;;;;;;5012673;28;20072;-86
2020/12/02 04:44:23;;;;;;;37.83;14.13;;;-1.80;99.90;;;;;;5025428;28;20053;-84
2020/12/02 04:46:55;;;;;;;70.37;25.90;;;-1.80;99.90;;;;;;5033103;28;20017;-85
2020/12/02 04:49:32;;;;;;;68.70;24.90;;;-1.80;99.90;;;;;;5009666;28;20061;-83
2020/12/02 04:52:04;;;;;;;79.67;28.80;;;-1.70;99.90;;;;;;5026056;28;20018;-85
2020/12/02 04:54:29;;;;;;;77.23;29.30;;;-1.60;99.90;;;;;;5023618;28;20037;-84
2020/12/02 04:56:55;;;;;;;47.73;17.47;;;-1.60;99.90;;;;;;5007777;28;20022;-87
2020/12/02 04:59:37;;;;;;;82.30;30.33;;;-1.60;99.90;;;;;;5007717;28;20392;-83
2020/12/02 05:02:03;;;;;;;68.53;26.03;;;-1.60;99.90;;;;;;5015096;28;20022;-84
2020/12/02 05:04:29;;;;;;;56.37;19.77;;;-1.60;99.90;;;;;;5006892;28;20022;-83
2020/12/02 05:07:06;;;;;;;39.80;14.93;;;-1.60;99.90;;;;;;5014296;28;20026;-85
2020/12/02 05:09:34;;;;;;;42.90;17.13;;;-1.80;99.90;;;;;;5014369;28;20026;-85
2020/12/02 05:12:03;;;;;;;44.03;16.53;;;-1.90;99.90;;;;;;5011635;28;20176;-85
2020/12/02 05:14:41;;;;;;;82.30;28.33;;;-1.90;99.90;;;;;;5024210;28;20566;-84
2020/12/02 05:17:23;;;;;;;81.00;28.37;;;-1.80;99.90;;;;;;5011358;28;20860;-84
2020/12/02 05:20:20;;;;;;;71.77;25.93;;;-1.80;99.90;;;;;;5015777;28;20041;-84
2020/12/02 05:22:50;;;;;;;62.27;22.70;;;-1.70;99.90;;;;;;5016025;28;20389;-87
2020/12/02 05:25:24;;;;;;;56.53;18.17;;;-1.80;99.90;;;;;;5010608;28;20077;-85
2020/12/02 05:27:59;;;;;;;87.53;27.47;;;-1.80;99.90;;;;;;5012614;28;20061;-84
2020/12/02 05:30:30;;;;;;;77.53;23.50;;;-1.80;99.90;;;;;;5012428;28;20029;-85
2020/12/02 05:33:04;;;;;;;69.47;22.73;;;-1.80;99.90;;;;;;5010827;28;20025;-85
2020/12/02 05:35:33;;;;;;;37.70;14.00;;;-1.90;99.90;;;;;;5007943;28;20017;-84
2020/12/02 05:38:00;;;;;;;36.87;13.63;;;-1.90;99.90;;;;;;5009459;28;20044;-85
2020/12/02 05:40:27;;;;;;;60.50;19.67;;;-1.80;99.90;;;;;;4993318;28;20037;-90
2020/12/02 05:42:57;;;;;;;42.17;15.67;;;-1.70;99.90;;;;;;5042497;28;20026;-88
2020/12/02 05:45:34;;;;;;;41.37;15.23;;;-1.70;99.90;;;;;;5037243;28;20022;-88
2020/12/02 05:48:05;;;;;;;33.00;12.47;;;-1.70;99.90;;;;;;5037401;28;20384;-89
2020/12/02 05:50:30;;;;;;;47.55;17.45;;;-1.80;99.90;;;;;;5021507;28;20388;-86
2020/12/02 05:53:20;;;;;;;40.43;13.63;;;-1.70;99.90;;;;;;5014402;28;20124;-87
2020/12/02 05:55:47;;;;;;;60.53;21.37;;;-1.70;99.90;;;;;;5006857;28;20026;-84
2020/12/02 05:58:26;;;;;;;51.13;17.43;;;-1.70;99.90;;;;;;5008128;28;20037;-83
2020/12/02 06:00:53;;;;;;;60.55;20.27;;;-1.70;99.90;;;;;;5020634;28;20018;-88
2020/12/02 06:03:26;;;;;;;72.30;24.37;;;-1.70;99.90;;;;;;5016538;28;20048;-90
2020/12/02 06:06:01;;;;;;;68.53;22.37;;;-1.70;99.90;;;;;;5021614;28;20021;-90
2020/12/02 06:08:38;;;;;;;64.10;23.53;;;-1.60;99.90;;;;;;5017407;28;20112;-87
2020/12/02 06:11:15;;;;;;;73.77;25.10;;;-1.60;99.90;;;;;;5000341;28;20038;-82
2020/12/02 06:13:45;;;;;;;36.57;14.63;;;-1.70;99.90;;;;;;5021412;28;20025;-87
2020/12/02 06:16:34;;;;;;;67.10;24.45;;;-1.70;99.90;;;;;;5046622;28;20093;-87
2020/12/02 06:19:26;;;;;;;75.88;26.55;;;-1.60;99.90;;;;;;5025248;28;20053;-84
2020/12/02 06:22:02;;;;;;;62.77;22.40;;;-1.60;99.90;;;;;;4930076;29;20119;-87
2020/12/02 06:24:39;;;;;;;68.17;26.60;;;-1.50;99.90;;;;;;4931679;29;20452;-87
2020/12/02 06:27:14;;;;;;;71.97;28.00;;;-1.50;99.90;;;;;;4924729;29;20032;-87
2020/12/02 06:29:47;;;;;;;67.80;25.97;;;-1.50;99.90;;;;;;4930340;29;20033;-86
2020/12/02 06:32:23;;;;;;;65.60;25.73;;;-1.40;99.90;;;;;;4948994;28;20028;-90
2020/12/02 06:34:51;;;;;;;51.60;16.97;;;-1.50;99.90;;;;;;4917728;29;20058;-87
2020/12/02 06:37:20;;;;;;;51.87;18.20;;;-1.50;99.90;;;;;;4931095;28;20023;-89
2020/12/02 06:39:54;;;;;;;62.78;22.52;;;-1.50;99.90;;;;;;4939621;28;20059;-88
2020/12/02 06:42:25;;;;;;;55.97;21.70;;;-1.50;99.90;;;;;;4931836;28;20036;-88
2020/12/02 06:45:11;;;;;;;57.13;21.50;;;-1.50;99.90;;;;;;4939709;29;20031;-89
2020/12/02 06:48:11;;;;;;;42.17;17.00;;;-1.70;99.90;;;;;;4920765;29;20035;-90
2020/12/02 06:50:37;;;;;;;45.33;15.80;;;-1.70;99.90;;;;;;4927221;29;20068;-89
2020/12/02 06:53:22;;;;;;;64.23;24.87;;;-1.90;99.90;;;;;;4923259;29;20102;-88
2020/12/02 06:56:00;;;;;;;57.73;21.27;;;-1.80;99.90;;;;;;4925786;29;20035;-89
2020/12/02 06:58:26;;;;;;;33.93;12.50;;;-1.80;99.90;;;;;;4954403;28;20081;-90
2020/12/02 07:00:58;;;;;;;50.37;18.77;;;-1.80;99.90;;;;;;5012682;28;20029;-90
2020/12/02 07:03:41;;;;;;;41.03;15.53;;;-1.80;99.90;;;;;;5012316;28;20072;-88
2020/12/02 07:06:25;;;;;;;71.63;26.63;;;-1.90;99.90;;;;;;5012428;28;20036;-90
2020/12/02 07:09:10;;;;;;;42.17;13.43;;;-1.90;99.90;;;;;;5010830;28;20038;-90
2020/12/02 07:11:40;;;;;;;36.60;11.13;;;-1.90;99.90;;;;;;5008800;28;20044;-90
2020/12/02 07:14:37;;;;;;;55.93;18.77;;;-2.00;99.90;;;;;;5020201;28;20056;-90
2020/12/02 07:17:09;;;;;;;42.87;13.63;;;-2.00;99.90;;;;;;5006901;28;20587;-88
2020/12/02 07:19:37;;;;;;;71.40;27.53;;;-1.90;99.90;;;;;;5009705;28;20068;-88
2020/12/02 07:22:10;;;;;;;42.47;15.73;;;-1.90;99.90;;;;;;5016333;28;20104;-92
2020/12/02 07:24:41;;;;;;;52.50;18.50;;;-1.80;99.90;;;;;;5006734;28;20034;-89
2020/12/02 07:27:07;;;;;;;56.47;23.40;;;-1.80;99.90;;;;;;5009437;28;20018;-90
2020/12/02 07:29:34;;;;;;;46.90;17.60;;;-1.80;99.90;;;;;;5018766;28;20039;-90
2020/12/02 07:32:20;;;;;;;60.43;20.00;;;-1.80;99.90;;;;;;5016686;28;20121;-89
2020/12/02 07:34:46;;;;;;;75.43;28.03;;;-1.80;99.90;;;;;;5015690;28;20025;-90
2020/12/02 07:37:19;;;;;;;76.47;28.87;;;-1.60;99.90;;;;;;5007930;28;20061;-89
2020/12/02 07:39:48;;;;;;;56.13;22.23;;;-1.50;99.90;;;;;;5014975;28;20029;-88
2020/12/02 07:42:19;;;;;;;73.10;28.77;;;-1.60;99.90;;;;;;5020521;28;20028;-88
2020/12/02 07:45:08;;;;;;;68.27;25.37;;;-1.50;99.90;;;;;;5027307;28;20018;-87
2020/12/02 07:47:34;;;;;;;72.55;28.52;;;-1.40;99.90;;;;;;5006936;28;20042;-89
2020/12/02 07:50:06;;;;;;;66.87;26.10;;;-1.40;99.90;;;;;;5002769;28;20447;-88
2020/12/02 07:52:45;;;;;;;66.97;27.50;;;-1.50;99.90;;;;;;5026825;28;20026;-84
2020/12/02 07:55:22;;;;;;;70.60;25.98;;;-1.50;99.90;;;;;;5025282;28;20048;-90
2020/12/02 07:57:51;;;;;;;65.07;26.17;;;-1.40;99.90;;;;;;5004067;28;20033;-91
2020/12/02 08:00:16;;;;;;;64.90;26.27;;;-1.40;99.90;;;;;;5016079;28;20496;-91
2020/12/02 08:02:44;;;;;;;48.47;15.37;;;-1.50;99.90;;;;;;5031779;28;20048;-91
2020/12/02 08:05:28;;;;;;;53.60;18.63;;;-1.50;99.90;;;;;;5018159;28;20037;-88
2020/12/02 08:08:03;;;;;;;65.90;25.07;;;-1.60;99.90;;;;;;5018881;28;20042;-90
2020/12/02 08:10:34;;;;;;;42.00;16.27;;;-1.50;99.90;;;;;;5026015;28;20053;-88
2020/12/02 08:13:13;;;;;;;48.13;17.00;;;-1.50;99.90;;;;;;5052636;28;20029;-89
2020/12/02 08:15:58;;;;;;;31.73;12.47;;;-1.40;99.90;;;;;;5037912;28;20018;-88
2020/12/02 08:18:26;;;;;;;46.60;18.63;;;-1.50;99.90;;;;;;5036803;28;20014;-87
2020/12/02 08:20:53;;;;;;;48.00;20.17;;;-1.50;99.90;;;;;;5038103;28;20045;-89
2020/12/02 08:23:30;;;;;;;43.57;16.77;;;-1.50;99.90;;;;;;5021110;28;20033;-89
2020/12/02 08:26:16;;;;;;;31.13;13.07;;;-1.40;99.90;;;;;;5041923;28;20018;-89
2020/12/02 08:28:42;;;;;;;45.60;13.90;;;-1.50;99.90;;;;;;5028693;28;20475;-91
2020/12/02 08:31:30;;;;;;;40.87;15.07;;;-1.40;99.90;;;;;;5017402;28;20104;-90
2020/12/02 08:34:28;;;;;;;38.43;14.43;;;-1.40;99.90;;;;;;5024197;28;20068;-90
2020/12/02 08:37:15;;;;;;;38.07;12.63;;;-1.50;99.90;;;;;;5039014;28;20021;-91
2020/12/02 08:39:47;;;;;;;33.83;13.33;;;-1.40;99.90;;;;;;5030459;28;20132;-88
2020/12/02 08:42:31;;;;;;;37.47;13.23;;;-1.40;99.90;;;;;;5024423;28;20496;-89
2020/12/02 08:45:26;;;;;;;26.57;9.97;;;-1.40;99.90;;;;;;5030230;28;20033;-86
2020/12/02 08:47:57;;;;;;;23.27;8.20;;;-1.40;99.90;;;;;;4982546;28;20042;-89
2020/12/02 08:50:25;;;;;;;26.43;8.70;;;;;;;;;;4968626;28;20058;-91
2020/12/02 08:52:55;;;;;;;33.10;12.10;;;-1.70;99.90;;;;;;4985646;28;20046;-85
2020/12/02 08:55:21;;;;;;;40.47;16.17;;;-1.50;99.90;;;;;;4987430;28;20033;-85
2020/12/02 08:57:47;;;;;;;27.00;10.57;;;-1.50;99.90;;;;;;4985514;28;20058;-81
2020/12/02 09:00:15;;;;;;;35.23;13.07;;;-1.50;99.90;;;;;;4971732;28;20847;-80
2020/12/02 09:02:41;;;;;;;43.97;17.70;;;-1.40;99.90;;;;;;4971981;28;20106;-81
2020/12/02 09:05:06;;;;;;;36.03;14.23;;;-1.40;99.90;;;;;;4971559;28;20038;-82
2020/12/02 09:07:32;;;;;;;29.13;10.43;;;-1.40;99.90;;;;;;4954748;28;20042;-81
2020/12/02 09:09:57;;;;;;;29.40;11.23;;;-1.50;99.90;;;;;;4972126;28;20393;-81
2020/12/02 09:12:24;;;;;;;40.83;15.47;;;-1.50;99.90;;;;;;4970954;28;20110;-81
2020/12/02 09:14:50;;;;;;;28.33;10.87;;;-1.50;99.90;;;;;;4971373;28;20488;-81
2020/12/02 09:17:15;;;;;;;29.20;11.63;;;-1.60;99.90;;;;;;4971552;28;20113;-82
2020/12/02 09:19:42;;;;;;;32.67;12.53;;;-1.50;99.90;;;;;;4969115;28;20506;-80
2020/12/02 09:22:07;;;;;;;29.33;9.97;;;-1.50;99.90;;;;;;4974239;28;20435;-82
2020/12/02 09:24:33;;;;;;;31.23;12.90;;;-1.40;99.90;;;;;;4990492;28;20061;-82
2020/12/02 09:26:59;;;;;;;31.80;11.90;;;-1.40;99.90;;;;;;4987819;28;20026;-84
2020/12/02 09:29:24;;;;;;;31.70;12.33;;;-1.30;99.90;;;;;;4991442;28;20041;-81
2020/12/02 09:31:50;;;;;;;32.43;12.37;;;-1.30;99.90;;;;;;5013443;28;20018;-77
2020/12/02 09:34:17;;;;;;;33.10;12.93;;;-1.30;99.90;;;;;;5009900;28;20397;-77
2020/12/02 09:36:45;;;;;;;25.90;9.93;;;-1.10;99.90;;;;;;5007966;28;20208;-78
2020/12/02 09:39:13;;;;;;;21.70;8.77;;;-1.10;99.90;;;;;;4998422;28;20033;-78
2020/12/02 09:41:44;;;;;;;18.10;6.23;;;-1.30;99.90;;;;;;5011926;28;20029;-78
2020/12/02 09:44:30;;;;;;;25.73;10.97;;;-1.30;99.90;;;;;;5006706;28;20389;-78
2020/12/02 09:47:01;;;;;;;31.33;11.77;;;-1.30;99.90;;;;;;5012350;28;20065;-78
2020/12/02 09:49:27;;;;;;;31.70;12.20;;;-1.30;99.90;;;;;;5011726;28;20018;-76
2020/12/02 09:52:10;;;;;;;33.20;13.70;;;-1.20;99.90;;;;;;5012184;28;20022;-78
2020/12/02 09:54:39;;;;;;;24.90;10.80;;;-1.20;99.90;;;;;;5011681;28;20112;-78
2020/12/02 09:57:17;;;;;;;34.00;13.93;;;-1.20;99.90;;;;;;5010559;28;20037;-77
2020/12/02 09:59:43;;;;;;;30.83;12.67;;;-1.20;99.90;;;;;;5011624;28;20034;-77
2020/12/02 10:02:37;;;;;;;31.07;13.40;;;-1.20;99.90;;;;;;5012079;28;20079;-77
2020/12/02 10:05:13;;;;;;;33.17;11.97;;;-1.20;99.90;;;;;;5011487;28;20472;-77
2020/12/02 10:07:47;;;;;;;39.87;15.53;;;-1.20;99.90;;;;;;5009904;28;20890;-78
2020/12/02 10:10:38;;;;;;;34.33;14.23;;;-1.20;99.90;;;;;;5011110;28;20025;-77
2020/12/02 10:13:31;;;;;;;39.63;14.97;;;-1.10;99.90;;;;;;5008607;28;20025;-78
2020/12/02 10:16:07;;;;;;;32.50;10.97;;;-1.20;99.90;;;;;;4981120;28;20113;-79
2020/12/02 10:18:58;;;;;;;39.63;15.60;;;-1.20;99.90;;;;;;5002766;28;20038;-77
2020/12/02 10:21:51;;;;;;;37.43;14.50;;;-1.20;99.90;;;;;;4993019;28;20046;-78
2020/12/02 10:24:22;;;;;;;37.57;15.47;;;-1.20;99.90;;;;;;5003603;28;20030;-79
2020/12/02 10:27:02;;;;;;;42.10;17.53;;;-1.20;99.90;;;;;;4999114;28;20083;-78
2020/12/02 10:30:13;;;;;;;38.33;15.13;;;-1.10;99.90;;;;;;5011483;28;20110;-77
2020/12/02 10:32:58;;;;;;;29.70;12.00;;;-1.00;99.90;;;;;;4971969;28;20073;-78
2020/12/02 10:35:26;;;;;;;33.33;14.50;;;-1.10;99.90;;;;;;4968890;28;20039;-77
2020/12/02 10:37:57;;;;;;;34.40;13.13;;;-1.10;99.90;;;;;;4971375;28;20030;-79
2020/12/02 10:40:22;;;;;;;23.30;9.27;;;-1.20;99.90;;;;;;4954119;28;20047;-77
2020/12/02 10:43:21;;;;;;;31.57;13.17;;;-1.10;99.90;;;;;;4969745;28;20057;-79
2020/12/02 10:45:50;;;;;;;31.95;13.30;;;-1.10;99.90;;;;;;4969623;28;20498;-78
2020/12/02 10:48:40;;;;;;;30.73;12.45;;;-1.00;99.90;;;;;;4968556;28;20705;-77
2020/12/02 10:51:09;;;;;;;;;;;-1.10;99.90;;;;;;4970244;28;20073;-77
2020/12/02 10:53:35;;;;;;;34.40;14.30;;;-1.00;99.90;;;;;;4968712;28;19928;-77
2020/12/02 10:56:00;;;;;;;35.17;13.10;;;-1.00;99.90;;;;;;4966645;28;20054;-78
2020/12/02 10:58:29;;;;;;;24.33;9.83;;;-1.00;99.90;;;;;;4965627;28;20514;-77
2020/12/02 11:00:57;;;;;;;37.57;14.73;;;-1.00;99.90;;;;;;4965244;28;20486;-78
2020/12/02 11:03:37;;;;;;;24.53;9.70;;;-1.10;99.90;;;;;;4967725;28;20031;-77
2020/12/02 11:06:08;;;;;;;;;;;-1.10;99.90;;;;;;4968332;28;20031;-77
2020/12/02 11:08:59;;;;;;;30.60;11.23;;;-1.10;99.90;;;;;;4998753;28;19905;-77
2020/12/02 11:11:43;;;;;;;39.20;16.03;;;-1.10;99.90;;;;;;5009649;28;20145;-78
2020/12/02 11:14:52;;;;;;;37.17;13.23;;;-1.00;99.90;;;;;;5010613;28;20590;-79
2020/12/02 11:17:23;;;;;;;;;;;-1.00;99.90;;;;;;4927296;29;20143;-81
2020/12/02 11:19:55;;;;;;;23.03;9.07;;;-1.00;99.90;;;;;;4941091;28;20047;-78
2020/12/02 11:22:46;;;;;;;41.97;16.50;;;-1.10;99.90;;;;;;4968131;28;20039;-79
2020/12/02 11:25:35;;;;;;;41.60;17.23;;;-1.10;99.90;;;;;;4968841;28;20151;-79
2020/12/02 11:28:01;;;;;;;28.80;10.40;;;-1.20;99.90;;;;;;4970182;28;20052;-78
2020/12/02 11:30:31;;;;;;;28.27;10.97;;;-1.10;99.90;;;;;;4969289;28;20653;-80
2020/12/02 11:33:33;;;;;;;47.27;18.27;;;-1.20;99.90;;;;;;4954072;28;20486;-77
2020/12/02 11:36:28;;;;;;;18.23;6.47;;;-1.20;99.90;;;;;;4971427;28;20125;-77
2020/12/02 11:39:07;;;;;;;42.00;16.53;;;-1.20;99.90;;;;;;4970328;28;20066;-76
2020/12/02 11:41:57;;;;;;;45.10;14.30;;;-1.20;99.90;;;;;;4955259;28;20732;-79
2020/12/02 11:44:42;;;;;;;23.93;9.70;;;-1.20;99.90;;;;;;4972291;28;20030;-77
2020/12/02 11:47:24;;;;;;;27.43;9.23;;;-1.30;99.90;;;;;;4982658;28;20037;-77
2020/12/02 11:49:57;;;;;;;24.67;10.20;;;-1.40;99.90;;;;;;5036527;28;20035;-77
2020/12/02 11:52:42;;;;;;;46.23;17.83;;;-1.40;99.90;;;;;;5036667;28;20552;-77
2020/12/02 11:55:14;;;;;;;46.83;19.30;;;-1.40;99.90;;;;;;5036901;28;20476;-78
2020/12/02 11:57:49;;;;;;;41.27;15.70;;;-1.40;99.90;;;;;;5036809;28;20052;-77
2020/12/02 12:00:15;;;;;;;26.63;9.23;;;-1.40;99.90;;;;;;5035990;28;20037;-77
2020/12/02 12:03:11;;;;;;;43.67;15.53;;;-1.40;99.90;;;;;;5036495;28;20093;-79
2020/12/02 12:05:51;;;;;;;35.37;11.60;;;-1.40;99.90;;;;;;5036048;28;20476;-77
2020/12/02 12:08:48;;;;;;;23.85;9.00;;;-1.40;99.90;;;;;;5036745;28;20026;-78
2020/12/02 12:11:35;;;;;;;50.23;19.63;;;-1.50;99.90;;;;;;5036210;28;20310;-77
2020/12/02 12:14:15;;;;;;;47.17;19.83;;;-1.40;99.90;;;;;;5019043;28;20021;-77
2020/12/02 12:17:06;;;;;;;20.10;7.20;;;-1.30;99.90;;;;;;5036370;28;20030;-78
2020/12/02 12:19:49;;;;;;;45.10;17.07;;;-1.40;99.90;;;;;;5034443;28;20064;-77
2020/12/02 12:22:48;;;;;;;29.77;10.87;;;-1.50;99.90;;;;;;5007169;28;20026;-77
2020/12/02 12:25:29;;;;;;;51.03;19.57;;;-1.50;99.90;;;;;;5016226;28;20111;-78
2020/12/02 12:28:01;;;;;;;50.13;20.43;;;-1.40;99.90;;;;;;5015958;28;20044;-77
2020/12/02 12:30:27;;;;;;;38.50;16.67;;;-1.40;99.90;;;;;;5015728;28;20034;-77
2020/12/02 12:33:08;;;;;;;51.33;20.67;;;-1.30;99.90;;;;;;5015615;28;20177;-76
2020/12/02 12:35:51;;;;;;;48.47;19.23;;;-1.30;99.90;;;;;;5016030;28;20029;-78
2020/12/02 12:38:35;;;;;;;33.17;13.67;;;-1.40;99.90;;;;;;5016245;28;20029;-77
2020/12/02 12:41:15;;;;;;;25.93;9.90;;;-1.60;99.90;;;;;;5015775;28;20069;-78
2020/12/02 12:43:51;;;;;;;;;;;-1.50;99.90;;;;;;5016126;28;20030;-78
2020/12/02 12:46:25;;;;;;;29.00;12.53;;;-1.60;99.90;;;;;;5015353;28;19906;-77
2020/12/02 12:48:52;;;;;;;30.93;12.83;;;-1.60;99.90;;;;;;5015683;28;20052;-77
2020/12/02 12:51:21;;;;;;;22.03;8.33;;;-1.70;99.90;;;;;;5017517;28;20026;-78
2020/12/02 12:53:49;;;;;;;48.07;17.97;;;-1.70;99.90;;;;;;5018301;28;20417;-78
2020/12/02 12:56:15;;;;;;;41.93;15.10;;;-1.70;99.90;;;;;;5015138;28;20022;-80
2020/12/02 12:58:41;;;;;;;41.93;15.43;;;-1.70;99.90;;;;;;5014012;28;20073;-77
2020/12/02 13:01:09;;;;;;;38.00;13.97;;;-1.70;99.90;;;;;;4997476;28;20064;-78